Time;durP1;ratioP1;P1;durP2;ratioP2;P2;SDS_P1;SDS_P2;PMS_P1;PMS_P2;Temp;Humidity;BMP_temperature;BMP_pressure;BME280_temperature;BME280_humidity;BME280_pressure;Samples;Min_cycle;Max_cycle;Signal;HPM_P1;HPM_P2
2023/09/18 00:01:01;;;;;;;5.25;4.95;;;23.10;99.90;;;;;;5085375;28;20322;-66
2023/09/18 00:03:28;;;;;;;5.32;4.93;;;23.10;99.90;;;;;;5085578;28;20217;-65
2023/09/18 00:05:55;;;;;;;6.10;5.70;;;23.10;99.90;;;;;;5085082;28;20234;-66
2023/09/18 00:08:21;;;;;;;5.85;5.38;;;23.10;99.90;;;;;;5085109;28;20214;-66
2023/09/18 00:10:50;;;;;;;5.82;5.43;;;23.10;99.90;;;;;;5085467;28;20743;-66
2023/09/18 00:13:18;;;;;;;5.70;5.40;;;23.00;99.90;;;;;;5085567;28;20272;-65
2023/09/18 00:15:46;;;;;;;5.65;5.35;;;23.00;99.90;;;;;;5085374;28;20734;-65
2023/09/18 00:18:14;;;;;;;5.82;5.50;;;23.00;99.90;;;;;;5085273;28;20253;-66
2023/09/18 00:20:42;;;;;;;5.72;5.32;;;23.00;99.90;;;;;;5084802;28;20205;-66
2023/09/18 00:23:09;;;;;;;9.02;5.57;;;23.00;99.90;;;;;;5073068;28;20213;-66
2023/09/18 00:25:37;;;;;;;5.53;5.10;;;23.00;99.90;;;;;;5064922;28;20290;-66
2023/09/18 00:28:04;;;;;;;6.00;5.60;;;23.00;99.90;;;;;;5077453;28;20237;-65
2023/09/18 00:30:33;;;;;;;5.38;5.07;;;22.90;99.90;;;;;;5084571;28;20875;-65
2023/09/18 00:32:59;;;;;;;5.50;5.20;;;22.90;99.90;;;;;;5081613;28;20632;-65
2023/09/18 00:35:26;;;;;;;5.95;5.53;;;22.90;99.90;;;;;;5077593;28;20213;-65
2023/09/18 00:37:53;;;;;;;5.20;4.90;;;22.90;99.90;;;;;;5088923;28;20250;-65
2023/09/18 00:40:20;;;;;;;5.47;5.07;;;22.90;99.90;;;;;;5088917;28;20329;-65
2023/09/18 00:42:47;;;;;;;5.50;5.10;;;22.80;99.90;;;;;;5088927;28;20255;-66
2023/09/18 00:45:14;;;;;;;5.63;5.20;;;22.80;99.90;;;;;;5088785;28;20294;-66
2023/09/18 00:47:43;;;;;;;5.88;5.47;;;22.80;99.90;;;;;;5088662;28;20288;-65
2023/09/18 00:50:12;;;;;;;5.15;4.85;;;22.80;99.90;;;;;;5088415;28;20210;-65
2023/09/18 00:52:41;;;;;;;5.30;5.00;;;22.70;99.90;;;;;;5075381;28;20318;-65
2023/09/18 00:55:10;;;;;;;5.35;5.05;;;22.70;99.90;;;;;;5068155;28;20203;-66
2023/09/18 00:57:36;;;;;;;5.50;5.03;;;22.70;99.90;;;;;;5076953;28;20261;-65
2023/09/18 01:00:05;;;;;;;5.68;5.25;;;22.70;99.90;;;;;;5088542;28;20206;-65
2023/09/18 01:02:32;;;;;;;5.32;4.93;;;22.60;99.90;;;;;;5089095;28;20207;-65
2023/09/18 01:05:00;;;;;;;5.53;5.13;;;22.60;99.90;;;;;;5088582;28;20234;-65
2023/09/18 01:07:28;;;;;;;6.28;5.75;;;22.60;99.90;;;;;;5088215;28;20213;-66
2023/09/18 01:09:55;;;;;;;5.47;5.07;;;22.60;99.90;;;;;;5070732;28;20298;-65
2023/09/18 01:12:28;;;;;;;5.68;5.38;;;22.50;99.90;;;;;;5081028;28;20277;-65
2023/09/18 01:15:02;;;;;;;5.07;4.78;;;22.50;99.90;;;;;;5088338;28;20301;-66
2023/09/18 01:17:30;;;;;;;5.97;5.57;;;22.50;99.90;;;;;;5088235;28;20218;-65
2023/09/18 01:19:57;;;;;;;5.00;4.80;;;22.50;99.90;;;;;;5082208;28;20502;-65
2023/09/18 01:22:25;;;;;;;5.50;5.03;;;22.50;99.90;;;;;;5068271;28;20239;-65
2023/09/18 01:24:53;;;;;;;5.82;4.70;;;22.40;99.90;;;;;;5068147;28;20239;-66
2023/09/18 01:27:20;;;;;;;5.40;5.10;;;22.40;99.90;;;;;;5074958;28;20218;-65
2023/09/18 01:29:48;;;;;;;5.10;4.80;;;22.40;99.90;;;;;;5083147;28;20216;-65
2023/09/18 01:32:16;;;;;;;5.90;5.30;;;22.40;99.90;;;;;;5068031;28;20207;-65
2023/09/18 01:34:47;;;;;;;5.47;5.07;;;22.40;99.90;;;;;;5067974;28;20208;-65
2023/09/18 01:37:17;;;;;;;5.80;5.30;;;22.40;99.90;;;;;;5067904;28;20310;-65
2023/09/18 01:39:46;;;;;;;5.47;5.18;;;22.30;99.90;;;;;;5067449;28;20331;-65
2023/09/18 01:42:15;;;;;;;5.50;5.10;;;22.30;99.90;;;;;;5067637;28;20265;-65
2023/09/18 01:44:43;;;;;;;5.38;5.00;;;22.30;99.90;;;;;;5076423;28;20238;-65
2023/09/18 01:47:13;;;;;;;6.30;5.20;;;22.30;99.90;;;;;;5087995;28;20207;-65
2023/09/18 01:49:42;;;;;;;5.82;5.53;;;22.30;99.90;;;;;;5088235;28;20370;-65
2023/09/18 01:52:10;;;;;;;5.53;5.22;;;22.30;99.90;;;;;;5087825;28;20215;-65
2023/09/18 01:54:37;;;;;;;5.82;5.45;;;22.20;99.90;;;;;;5087481;28;20669;-65
2023/09/18 01:57:07;;;;;;;5.70;5.32;;;22.20;99.90;;;;;;5087545;28;20306;-65
2023/09/18 01:59:35;;;;;;;6.10;5.43;;;22.20;99.90;;;;;;5087415;28;20207;-65
2023/09/18 02:02:03;;;;;;;5.45;5.00;;;22.20;99.90;;;;;;5084958;28;20661;-65
2023/09/18 02:04:31;;;;;;;5.35;4.97;;;22.20;99.90;;;;;;5087271;28;20211;-65
2023/09/18 02:06:58;;;;;;;6.35;5.85;;;22.10;99.90;;;;;;5086743;28;20670;-66
2023/09/18 02:09:25;;;;;;;6.18;5.50;;;22.10;99.90;;;;;;5087296;28;20695;-65
2023/09/18 02:11:51;;;;;;;6.68;5.78;;;22.10;99.90;;;;;;5087298;28;20256;-65
2023/09/18 02:14:18;;;;;;;5.30;4.90;;;22.10;99.90;;;;;;5086825;28;20280;-65
2023/09/18 02:16:47;;;;;;;5.82;5.35;;;22.10;99.90;;;;;;5087031;28;20207;-66
2023/09/18 02:19:14;;;;;;;5.85;5.35;;;22.10;99.90;;;;;;5086640;28;20344;-66
2023/09/18 02:21:42;;;;;;;6.20;5.13;;;22.00;99.90;;;;;;5080900;28;20269;-65
2023/09/18 02:24:09;;;;;;;5.68;5.20;;;22.00;99.90;;;;;;5066635;28;20290;-65
2023/09/18 02:26:36;;;;;;;5.40;5.00;;;22.00;99.90;;;;;;5066687;28;20243;-66
2023/09/18 02:29:05;;;;;;;5.50;5.20;;;22.00;99.90;;;;;;5086571;28;20272;-65
2023/09/18 02:31:32;;;;;;;5.18;4.88;;;21.90;99.90;;;;;;5085591;28;20289;-65
2023/09/18 02:34:00;;;;;;;5.53;5.20;;;21.90;99.90;;;;;;5086621;28;20246;-65
2023/09/18 02:36:27;;;;;;;5.95;5.20;;;21.90;99.90;;;;;;5086276;28;20293;-66
2023/09/18 02:38:54;;;;;;;5.53;5.03;;;21.90;99.90;;;;;;5085622;28;20779;-66
2023/09/18 02:41:21;;;;;;;5.60;5.30;;;22.00;99.90;;;;;;5086118;28;20241;-65
2023/09/18 02:43:48;;;;;;;5.13;4.80;;;22.00;99.90;;;;;;5086190;28;20310;-65
2023/09/18 02:46:15;;;;;;;5.65;5.10;;;22.00;99.90;;;;;;5086570;28;20246;-65
2023/09/18 02:48:41;;;;;;;5.50;5.10;;;22.00;99.90;;;;;;5086285;28;20207;-65
2023/09/18 02:51:10;;;;;;;6.10;5.05;;;21.90;99.90;;;;;;5086382;28;20294;-65
2023/09/18 02:53:37;;;;;;;5.18;4.82;;;21.90;99.90;;;;;;5085913;28;20309;-65
2023/09/18 02:56:04;;;;;;;5.40;4.97;;;21.90;99.90;;;;;;5086268;28;20214;-65
2023/09/18 02:58:31;;;;;;;5.43;5.13;;;21.90;99.90;;;;;;5077279;28;20607;-65
2023/09/18 03:00:59;;;;;;;5.30;4.88;;;21.90;99.90;;;;;;5065759;28;20893;-66
2023/09/18 03:03:26;;;;;;;5.95;5.30;;;21.80;99.90;;;;;;5066272;28;20310;-66
2023/09/18 03:05:53;;;;;;;5.38;5.07;;;21.80;99.90;;;;;;5067456;28;20725;-66
2023/09/18 03:08:22;;;;;;;5.22;4.80;;;21.80;99.90;;;;;;5076570;28;20769;-66
2023/09/18 03:10:49;;;;;;;5.07;4.68;;;21.80;99.90;;;;;;5065706;28;20302;-66
2023/09/18 03:13:16;;;;;;;5.03;4.63;;;21.60;99.90;;;;;;5065792;28;20216;-65
2023/09/18 03:15:47;;;;;;;5.38;5.07;;;21.60;99.90;;;;;;5065641;28;20212;-66
2023/09/18 03:18:14;;;;;;;5.18;4.70;;;21.60;99.90;;;;;;5065566;28;20227;-66
2023/09/18 03:20:41;;;;;;;5.00;4.53;;;21.60;99.90;;;;;;5065660;28;20669;-66
2023/09/18 03:23:08;;;;;;;5.40;5.05;;;21.50;99.90;;;;;;5065485;28;20203;-66
2023/09/18 03:25:37;;;;;;;5.28;4.88;;;21.50;99.90;;;;;;5065559;28;20203;-66
2023/09/18 03:28:04;;;;;;;6.05;4.80;;;21.60;99.90;;;;;;5077811;28;20302;-66
2023/09/18 03:30:31;;;;;;;5.35;4.95;;;21.60;99.90;;;;;;5085385;28;20202;-65
2023/09/18 03:32:58;;;;;;;5.25;4.95;;;21.50;99.90;;;;;;5085759;28;20226;-66
2023/09/18 03:35:25;;;;;;;5.43;5.00;;;21.50;99.90;;;;;;5085918;28;20206;-66
2023/09/18 03:37:54;;;;;;;5.38;4.97;;;21.50;99.90;;;;;;5084630;28;20621;-66
2023/09/18 03:40:21;;;;;;;5.30;5.00;;;21.50;99.90;;;;;;5085092;28;20234;-66
2023/09/18 03:42:50;;;;;;;5.53;5.03;;;21.50;99.90;;;;;;5085436;28;20680;-66
2023/09/18 03:45:18;;;;;;;5.60;5.10;;;21.50;99.90;;;;;;5084896;28;20294;-66
2023/09/18 03:47:47;;;;;;;5.70;5.30;;;21.50;99.90;;;;;;5085161;28;20214;-66
2023/09/18 03:50:14;;;;;;;5.45;5.10;;;21.50;99.90;;;;;;5085565;28;20307;-66
2023/09/18 03:52:41;;;;;;;5.93;5.30;;;21.40;99.90;;;;;;5085278;28;20293;-66
2023/09/18 03:55:08;;;;;;;5.25;4.95;;;21.40;99.90;;;;;;5085078;28;20301;-66
2023/09/18 03:57:36;;;;;;;5.00;4.70;;;21.40;99.90;;;;;;5085080;28;20216;-66
2023/09/18 04:00:07;;;;;;;5.57;5.13;;;21.40;99.90;;;;;;5085138;28;20241;-66
2023/09/18 04:02:35;;;;;;;4.95;4.57;;;21.40;99.90;;;;;;5085044;28;20198;-66
2023/09/18 04:05:02;;;;;;;5.30;5.00;;;21.40;99.90;;;;;;5084843;28;20669;-66
2023/09/18 04:07:29;;;;;;;5.65;5.20;;;21.40;99.90;;;;;;5084748;28;20205;-66
2023/09/18 04:09:56;;;;;;;5.65;5.10;;;21.40;99.90;;;;;;5084839;28;20356;-66
2023/09/18 04:12:23;;;;;;;5.22;4.93;;;21.40;99.90;;;;;;5084803;28;20289;-66
2023/09/18 04:14:50;;;;;;;5.60;5.20;;;21.30;99.90;;;;;;5084583;28;20217;-66
2023/09/18 04:17:20;;;;;;;5.28;4.97;;;21.30;99.90;;;;;;5084878;28;20238;-66
2023/09/18 04:19:48;;;;;;;5.45;4.95;;;21.30;99.90;;;;;;5084728;28;20234;-66
2023/09/18 04:22:15;;;;;;;5.18;4.88;;;21.30;99.90;;;;;;5084739;28;20210;-66
2023/09/18 04:24:42;;;;;;;5.55;5.05;;;21.20;99.90;;;;;;5084532;28;20297;-66
2023/09/18 04:27:09;;;;;;;5.45;5.03;;;21.20;99.90;;;;;;5084884;28;20831;-66
2023/09/18 04:29:36;;;;;;;5.78;5.38;;;21.20;99.90;;;;;;5084271;28;20257;-66
2023/09/18 04:32:05;;;;;;;5.93;5.53;;;21.20;99.90;;;;;;5083733;28;20213;-66
2023/09/18 04:34:34;;;;;;;5.78;5.30;;;21.10;99.90;;;;;;5064512;28;20321;-66
2023/09/18 04:37:03;;;;;;;5.90;4.97;;;21.10;99.90;;;;;;5064510;28;20584;-66
2023/09/18 04:39:33;;;;;;;5.50;5.10;;;21.00;99.90;;;;;;5064626;28;20234;-66
2023/09/18 04:42:03;;;;;;;6.10;5.70;;;21.00;99.90;;;;;;5064919;28;20196;-66
2023/09/18 04:44:30;;;;;;;5.18;4.88;;;21.00;99.90;;;;;;5064555;28;20233;-66
2023/09/18 04:46:58;;;;;;;5.38;4.85;;;21.00;99.90;;;;;;5064592;28;20293;-66
2023/09/18 04:49:26;;;;;;;5.65;5.35;;;21.00;99.90;;;;;;5064532;28;20203;-67
2023/09/18 04:51:54;;;;;;;5.53;5.18;;;20.90;99.90;;;;;;5064211;28;20215;-66
2023/09/18 04:54:23;;;;;;;5.45;5.05;;;20.90;99.90;;;;;;5064030;28;20735;-66
2023/09/18 04:56:50;;;;;;;6.63;5.45;;;20.90;99.90;;;;;;5065918;28;20575;-66
2023/09/18 04:59:16;;;;;;;5.95;5.50;;;20.90;99.90;;;;;;5084067;28;20238;-65
2023/09/18 05:01:44;;;;;;;5.45;5.05;;;20.80;99.90;;;;;;5084309;28;20332;-66
2023/09/18 05:04:11;;;;;;;6.60;5.82;;;20.80;99.90;;;;;;5084257;28;20218;-66
2023/09/18 05:06:38;;;;;;;5.67;5.37;;;20.80;99.90;;;;;;5083797;28;20213;-66
2023/09/18 05:09:07;;;;;;;5.55;5.13;;;20.80;99.90;;;;;;5084401;28;20210;-65
2023/09/18 05:11:34;;;;;;;6.40;5.80;;;20.70;99.90;;;;;;5084140;28;20732;-66
2023/09/18 05:14:01;;;;;;;5.95;5.50;;;20.80;99.90;;;;;;5084272;28;20289;-66
2023/09/18 05:16:28;;;;;;;5.82;5.38;;;20.80;99.90;;;;;;5084458;28;20234;-66
2023/09/18 05:18:55;;;;;;;6.13;5.65;;;20.70;99.90;;;;;;5083861;28;20697;-66
2023/09/18 05:21:24;;;;;;;5.60;5.30;;;20.80;99.90;;;;;;5085060;28;20847;-66
2023/09/18 05:23:52;;;;;;;5.68;5.18;;;20.80;99.90;;;;;;5087956;28;20219;-66
2023/09/18 05:26:23;;;;;;;6.18;5.85;;;20.90;99.90;;;;;;5088048;28;20216;-65
2023/09/18 05:28:50;;;;;;;5.63;5.20;;;20.90;99.90;;;;;;5087488;28;20241;-66
2023/09/18 05:31:17;;;;;;;5.37;5.07;;;20.90;99.90;;;;;;5088054;28;20203;-66
2023/09/18 05:33:43;;;;;;;6.10;5.50;;;20.90;99.90;;;;;;5087600;28;20645;-66
2023/09/18 05:36:10;;;;;;;5.45;5.00;;;21.00;99.90;;;;;;5087989;28;20545;-66
2023/09/18 05:38:40;;;;;;;4.95;4.65;;;20.90;99.90;;;;;;5087918;28;20262;-66
2023/09/18 05:41:07;;;;;;;5.40;5.05;;;20.90;99.90;;;;;;5087610;28;20271;-66
2023/09/18 05:43:35;;;;;;;5.43;4.93;;;20.90;99.90;;;;;;5087472;28;20298;-66
2023/09/18 05:46:02;;;;;;;5.67;5.27;;;21.00;99.90;;;;;;5087641;28;20246;-66
2023/09/18 05:48:29;;;;;;;5.72;5.30;;;20.90;99.90;;;;;;5087673;28;20301;-66
2023/09/18 05:50:56;;;;;;;8.07;5.35;;;20.90;99.90;;;;;;5087108;28;20297;-66
2023/09/18 05:53:23;;;;;;;5.50;5.20;;;20.90;99.90;;;;;;5087419;28;20273;-66
2023/09/18 05:55:50;;;;;;;5.97;5.37;;;20.90;99.90;;;;;;5087059;28;20268;-66
2023/09/18 05:58:19;;;;;;;6.30;5.35;;;21.00;99.90;;;;;;5087255;28;20326;-65
2023/09/18 06:00:48;;;;;;;5.35;4.95;;;20.90;99.90;;;;;;5086889;28;20206;-66
2023/09/18 06:03:18;;;;;;;6.10;5.55;;;20.80;99.90;;;;;;5087280;28;20207;-65
2023/09/18 06:05:46;;;;;;;5.95;5.30;;;20.80;99.90;;;;;;5087071;28;20210;-66
2023/09/18 06:08:13;;;;;;;6.22;5.63;;;20.80;99.90;;;;;;5087095;28;20688;-66
2023/09/18 06:10:40;;;;;;;5.72;5.13;;;20.80;99.90;;;;;;5086712;28;20752;-66
2023/09/18 06:13:07;;;;;;;6.13;5.55;;;20.80;99.90;;;;;;5087103;28;20301;-66
2023/09/18 06:15:34;;;;;;;5.85;5.28;;;20.70;99.90;;;;;;5086775;28;20238;-65
2023/09/18 06:18:04;;;;;;;5.95;5.55;;;20.50;99.90;;;;;;5087362;28;20237;-66
2023/09/18 06:20:30;;;;;;;5.67;5.27;;;20.40;99.90;;;;;;5087266;28;20257;-66
2023/09/18 06:22:57;;;;;;;6.20;5.60;;;20.50;99.90;;;;;;5087620;28;20337;-65
2023/09/18 06:25:24;;;;;;;7.57;5.53;;;20.60;99.90;;;;;;5086839;28;20242;-66
2023/09/18 06:27:51;;;;;;;6.40;5.90;;;20.70;99.90;;;;;;5087132;28;20299;-65
2023/09/18 06:30:18;;;;;;;6.32;5.68;;;20.80;99.90;;;;;;5086829;28;20254;-66
2023/09/18 06:32:45;;;;;;;5.70;5.23;;;20.90;99.90;;;;;;5085847;28;20572;-66
2023/09/18 06:35:13;;;;;;;6.63;5.20;;;20.90;99.90;;;;;;5086540;28;20286;-66
2023/09/18 06:37:40;;;;;;;5.55;5.00;;;21.00;99.90;;;;;;5086668;28;20264;-66
2023/09/18 06:40:09;;;;;;;5.80;5.30;;;21.00;99.90;;;;;;5086148;28;20329;-66
2023/09/18 06:42:36;;;;;;;7.97;5.38;;;21.10;99.90;;;;;;5086386;28;20756;-66
2023/09/18 06:45:03;;;;;;;5.93;5.43;;;21.10;99.90;;;;;;5086697;28;20297;-66
2023/09/18 06:47:29;;;;;;;6.13;5.55;;;21.10;99.90;;;;;;5086699;28;20214;-66
2023/09/18 06:49:56;;;;;;;5.85;5.40;;;21.10;99.90;;;;;;5086462;28;20271;-66
2023/09/18 06:52:26;;;;;;;5.57;4.95;;;21.20;99.90;;;;;;5086614;28;20260;-66
2023/09/18 06:54:53;;;;;;;5.80;4.93;;;21.20;99.90;;;;;;5086683;28;20288;-66
2023/09/18 06:57:21;;;;;;;6.00;5.40;;;21.30;99.90;;;;;;5086426;28;20689;-66
2023/09/18 06:59:48;;;;;;;5.57;5.05;;;21.40;99.90;;;;;;5086605;28;20262;-66
2023/09/18 07:02:15;;;;;;;5.57;5.18;;;21.40;99.90;;;;;;5086475;28;20230;-66
2023/09/18 07:04:45;;;;;;;5.50;5.00;;;21.50;99.90;;;;;;5086123;28;20247;-66
2023/09/18 07:07:13;;;;;;;5.07;4.57;;;21.50;99.90;;;;;;5085887;28;20573;-66
2023/09/18 07:09:42;;;;;;;5.75;5.30;;;21.60;99.90;;;;;;5085839;28;20217;-65
2023/09/18 07:12:10;;;;;;;5.60;5.05;;;21.60;99.90;;;;;;5086408;28;20237;-66
2023/09/18 07:14:37;;;;;;;5.45;4.95;;;21.60;99.90;;;;;;5085664;28;20578;-66
2023/09/18 07:17:05;;;;;;;5.70;4.88;;;21.70;99.90;;;;;;5086186;28;20211;-66
2023/09/18 07:19:32;;;;;;;5.78;5.28;;;21.80;99.90;;;;;;5086219;28;20311;-66
2023/09/18 07:21:59;;;;;;;5.28;4.88;;;21.80;99.90;;;;;;5075655;28;20215;-66
2023/09/18 07:24:26;;;;;;;5.30;4.78;;;21.90;99.90;;;;;;5065748;28;20211;-66
2023/09/18 07:26:54;;;;;;;5.00;4.32;;;22.00;99.90;;;;;;5085083;28;20241;-66
2023/09/18 07:29:22;;;;;;;5.60;5.03;;;22.10;99.90;;;;;;5086304;28;20226;-66
2023/09/18 07:31:49;;;;;;;5.18;4.88;;;22.10;99.90;;;;;;5085986;28;20225;-66
2023/09/18 07:34:17;;;;;;;5.20;4.82;;;22.20;99.90;;;;;;5085678;28;20746;-66
2023/09/18 07:36:45;;;;;;;5.22;4.60;;;22.30;99.90;;;;;;5085254;28;20207;-66
2023/09/18 07:39:12;;;;;;;6.15;4.88;;;22.40;99.90;;;;;;5085603;28;20230;-66
2023/09/18 07:41:39;;;;;;;4.80;4.50;;;22.50;99.90;;;;;;5085231;28;20349;-66
2023/09/18 07:44:07;;;;;;;5.03;4.63;;;22.50;99.90;;;;;;5085160;28;20290;-66
2023/09/18 07:46:35;;;;;;;4.80;4.50;;;22.60;99.90;;;;;;5085252;28;20534;-66
2023/09/18 07:49:02;;;;;;;4.60;4.28;;;22.60;99.90;;;;;;5085710;28;20267;-66
2023/09/18 07:51:29;;;;;;;6.35;4.95;;;22.70;99.90;;;;;;5085306;28;20249;-66
2023/09/18 07:53:56;;;;;;;4.70;4.40;;;22.70;99.90;;;;;;5085178;28;20211;-66
2023/09/18 07:56:23;;;;;;;5.50;4.57;;;22.80;99.90;;;;;;5085208;28;20294;-66
2023/09/18 07:58:50;;;;;;;4.45;4.15;;;22.90;99.90;;;;;;5085173;28;20302;-66
2023/09/18 08:01:22;;;;;;;4.13;3.92;;;22.90;99.90;;;;;;5084914;28;20946;-66
2023/09/18 08:03:49;;;;;;;4.80;4.40;;;23.00;99.90;;;;;;5085215;28;20191;-66
2023/09/18 08:06:18;;;;;;;4.85;4.55;;;23.10;99.90;;;;;;5084813;28;20226;-66
2023/09/18 08:08:46;;;;;;;5.00;4.45;;;23.10;99.90;;;;;;5084607;28;21033;-66
2023/09/18 08:11:13;;;;;;;5.30;4.35;;;23.20;99.90;;;;;;5085153;28;20210;-66
2023/09/18 08:13:40;;;;;;;9.73;4.80;;;23.30;99.90;;;;;;5084964;28;20803;-66
2023/09/18 08:16:08;;;;;;;4.80;4.18;;;23.40;99.90;;;;;;5085066;28;21032;-66
2023/09/18 08:18:40;;;;;;;4.68;4.28;;;23.40;99.90;;;;;;5084282;28;20210;-66
2023/09/18 08:21:08;;;;;;;7.05;4.32;;;23.50;99.90;;;;;;5084761;28;20234;-66
2023/09/18 08:23:36;;;;;;;4.65;4.20;;;23.60;99.90;;;;;;5084504;28;20739;-66
2023/09/18 08:26:03;;;;;;;5.60;4.30;;;23.60;99.90;;;;;;5071870;28;20246;-66
2023/09/18 08:28:30;;;;;;;4.28;4.05;;;23.70;99.90;;;;;;5080101;28;20238;-66
2023/09/18 08:30:58;;;;;;;4.30;4.10;;;23.80;99.90;;;;;;5083963;28;20720;-66
2023/09/18 08:33:25;;;;;;;4.38;4.03;;;23.80;99.90;;;;;;5084946;28;20234;-66
2023/09/18 08:35:54;;;;;;;4.28;4.07;;;23.90;99.90;;;;;;5084487;28;20321;-66
2023/09/18 08:38:21;;;;;;;6.25;4.38;;;24.00;99.90;;;;;;5084909;28;20360;-66
2023/09/18 08:40:48;;;;;;;4.30;4.00;;;24.00;99.90;;;;;;5084357;28;20341;-66
2023/09/18 08:43:17;;;;;;;4.38;3.97;;;24.10;99.90;;;;;;5084919;28;20225;-66
2023/09/18 08:45:51;;;;;;;3.97;3.78;;;24.20;99.90;;;;;;5084675;28;20220;-66
2023/09/18 08:48:19;;;;;;;4.53;4.13;;;24.30;99.90;;;;;;5084785;28;20190;-66
2023/09/18 08:50:46;;;;;;;4.22;3.80;;;24.40;99.90;;;;;;5084663;28;20234;-66
2023/09/18 08:53:15;;;;;;;4.63;4.32;;;24.50;99.90;;;;;;5084412;28;20627;-66
2023/09/18 08:55:42;;;;;;;4.70;4.35;;;24.60;99.90;;;;;;5083795;28;20234;-66
2023/09/18 08:58:09;;;;;;;4.97;4.50;;;24.70;99.90;;;;;;5087670;28;20301;-66
2023/09/18 09:00:38;;;;;;;4.20;3.85;;;24.80;99.90;;;;;;5088239;28;20320;-66
2023/09/18 09:03:05;;;;;;;4.15;3.85;;;24.90;99.90;;;;;;5088536;28;20373;-66
2023/09/18 09:05:33;;;;;;;5.00;4.38;;;24.90;99.90;;;;;;5088822;28;20206;-66
2023/09/18 09:08:00;;;;;;;3.83;3.47;;;25.00;99.90;;;;;;5088717;28;20295;-66
2023/09/18 09:10:29;;;;;;;5.20;4.28;;;25.00;99.90;;;;;;5088684;28;20206;-66
2023/09/18 09:12:58;;;;;;;4.47;4.10;;;25.10;99.90;;;;;;5088800;28;20199;-66
2023/09/18 09:15:27;;;;;;;5.55;4.07;;;25.10;99.90;;;;;;5088269;28;20211;-66
2023/09/18 09:18:04;;;;;;;4.18;3.97;;;25.20;99.90;;;;;;5088408;28;20301;-66
2023/09/18 09:20:31;;;;;;;4.53;3.90;;;25.30;99.90;;;;;;5088719;28;20240;-66
2023/09/18 09:23:02;;;;;;;4.70;3.78;;;25.30;99.90;;;;;;5088174;28;20209;-66
2023/09/18 09:25:33;;;;;;;15.95;4.50;;;25.20;99.90;;;;;;5088071;28;20227;-66
2023/09/18 09:28:03;;;;;;;4.50;4.10;;;25.30;99.90;;;;;;5088234;28;20238;-66
2023/09/18 09:30:30;;;;;;;3.95;3.67;;;25.30;99.90;;;;;;5087781;28;20282;-66
2023/09/18 09:32:58;;;;;;;4.68;4.25;;;25.40;99.90;;;;;;5087769;28;20730;-66
2023/09/18 09:35:29;;;;;;;4.35;4.00;;;25.40;99.90;;;;;;5087955;28;20330;-66
2023/09/18 09:38:00;;;;;;;3.70;3.50;;;25.40;99.90;;;;;;5087891;28;20195;-66
2023/09/18 09:40:28;;;;;;;3.97;3.72;;;25.50;99.90;;;;;;5087550;28;20242;-66
2023/09/18 09:43:01;;;;;;;4.10;3.80;;;25.50;99.90;;;;;;5088073;28;20647;-66
2023/09/18 09:45:35;;;;;;;3.50;3.30;;;25.50;99.90;;;;;;5088280;28;20218;-66
2023/09/18 09:48:05;;;;;;;4.30;4.00;;;25.50;99.90;;;;;;5088091;28;20245;-66
2023/09/18 09:50:33;;;;;;;4.05;3.85;;;25.50;99.90;;;;;;5087680;28;20410;-66
2023/09/18 09:53:00;;;;;;;4.35;4.05;;;25.50;99.90;;;;;;5087250;28;20325;-66
2023/09/18 09:55:29;;;;;;;4.45;4.05;;;25.50;99.90;;;;;;5087483;28;20281;-66
2023/09/18 09:57:59;;;;;;;4.22;3.85;;;25.40;99.90;;;;;;5087485;28;20211;-66
2023/09/18 10:00:32;;;;;;;4.03;3.70;;;25.40;99.90;;;;;;5087354;28;20254;-66
2023/09/18 10:03:02;;;;;;;4.13;3.85;;;25.40;99.90;;;;;;5087815;28;20203;-66
2023/09/18 10:05:32;;;;;;;3.88;3.63;;;25.40;99.90;;;;;;5087379;28;20728;-66
2023/09/18 10:08:01;;;;;;;4.88;3.60;;;25.40;99.90;;;;;;5087260;28;20650;-66
2023/09/18 10:10:33;;;;;;;4.30;3.90;;;25.40;99.90;;;;;;5087000;28;20293;-66
2023/09/18 10:13:07;;;;;;;4.10;3.80;;;25.50;99.90;;;;;;5087368;28;20210;-66
2023/09/18 10:15:38;;;;;;;4.10;3.80;;;25.50;99.90;;;;;;5086856;28;20638;-66
2023/09/18 10:18:18;;;;;;;4.15;3.80;;;25.60;99.90;;;;;;5087325;28;20207;-66
2023/09/18 10:20:48;;;;;;;4.38;3.97;;;25.60;99.90;;;;;;5086738;28;20746;-66
2023/09/18 10:23:27;;;;;;;4.28;3.63;;;25.60;99.90;;;;;;5086894;28;20231;-66
2023/09/18 10:26:03;;;;;;;4.22;3.85;;;25.70;99.90;;;;;;5087416;28;20276;-66
2023/09/18 10:28:32;;;;;;;4.15;3.85;;;25.70;99.90;;;;;;5087305;28;20228;-66
2023/09/18 10:31:01;;;;;;;4.65;4.05;;;25.80;99.90;;;;;;5086996;28;20737;-66
2023/09/18 10:33:28;;;;;;;3.90;3.70;;;25.80;99.90;;;;;;5087177;28;20743;-66
2023/09/18 10:35:58;;;;;;;4.07;3.80;;;25.80;99.90;;;;;;5086873;28;20305;-66
2023/09/18 10:38:27;;;;;;;4.25;3.75;;;25.80;99.90;;;;;;5086847;28;20283;-66
2023/09/18 10:40:54;;;;;;;4.20;3.88;;;25.80;99.90;;;;;;5086280;28;20334;-66
2023/09/18 10:43:21;;;;;;;7.28;4.30;;;25.90;99.90;;;;;;5086403;28;20209;-66
2023/09/18 10:45:52;;;;;;;4.15;3.90;;;25.90;99.90;;;;;;5086436;28;20224;-66
2023/09/18 10:48:20;;;;;;;4.85;3.80;;;25.80;99.90;;;;;;5086694;28;20195;-66
2023/09/18 10:50:47;;;;;;;4.35;4.07;;;25.80;99.90;;;;;;5086391;28;20234;-66
2023/09/18 10:53:14;;;;;;;9.50;8.68;;;25.80;99.90;;;;;;5086284;28;20847;-66
2023/09/18 10:55:44;;;;;;;7.18;6.53;;;25.80;99.90;;;;;;5086336;28;20294;-66
2023/09/18 10:58:11;;;;;;;4.50;4.20;;;25.80;99.90;;;;;;5086786;28;20207;-66
2023/09/18 11:00:38;;;;;;;4.75;4.35;;;25.80;99.90;;;;;;5086263;28;20321;-66
2023/09/18 11:03:17;;;;;;;4.00;3.80;;;25.80;99.90;;;;;;5086481;28;20234;-66
2023/09/18 11:05:45;;;;;;;4.47;4.18;;;25.70;99.90;;;;;;5086010;28;20668;-66
2023/09/18 11:08:29;;;;;;;4.55;4.30;;;25.70;99.90;;;;;;5065541;28;20248;-67
2023/09/18 11:10:59;;;;;;;4.70;4.40;;;25.60;99.90;;;;;;5066074;28;20286;-66
2023/09/18 11:13:35;;;;;;;4.75;4.40;;;25.60;99.90;;;;;;5067223;28;20207;-66
2023/09/18 11:16:03;;;;;;;4.68;4.15;;;25.50;99.90;;;;;;5086240;28;20209;-66
2023/09/18 11:18:35;;;;;;;4.30;3.90;;;25.50;99.90;;;;;;5085729;28;20678;-66
2023/09/18 11:21:09;;;;;;;4.43;4.13;;;25.50;99.90;;;;;;5085425;28;20215;-66
2023/09/18 11:23:38;;;;;;;5.03;4.63;;;25.50;99.90;;;;;;5086047;28;20210;-66
2023/09/18 11:26:07;;;;;;;4.47;4.07;;;25.60;99.90;;;;;;5086011;28;20233;-66
2023/09/18 11:28:34;;;;;;;4.07;3.88;;;25.50;99.90;;;;;;5085845;28;20697;-66
2023/09/18 11:31:01;;;;;;;4.82;4.53;;;25.50;99.90;;;;;;5086247;28;20245;-66
2023/09/18 11:33:32;;;;;;;4.97;4.50;;;25.50;99.90;;;;;;5085989;28;20304;-66
2023/09/18 11:36:06;;;;;;;4.53;4.22;;;25.50;99.90;;;;;;5085924;28;20648;-66
2023/09/18 11:38:35;;;;;;;4.45;3.95;;;25.40;99.90;;;;;;5085572;28;20201;-66
2023/09/18 11:41:23;;;;;;;4.40;4.10;;;25.40;99.90;;;;;;5085554;28;20265;-66
2023/09/18 11:43:50;;;;;;;5.57;4.20;;;25.40;99.90;;;;;;5085310;28;20276;-66
2023/09/18 11:46:20;;;;;;;4.20;4.00;;;25.30;99.90;;;;;;5085644;28;20685;-66
2023/09/18 11:48:50;;;;;;;4.15;3.83;;;25.30;99.90;;;;;;5085329;28;20210;-66
2023/09/18 11:51:24;;;;;;;3.60;3.40;;;25.20;99.90;;;;;;5085575;28;20581;-66
2023/09/18 11:53:55;;;;;;;4.03;3.60;;;25.20;99.90;;;;;;5085468;28;20282;-66
2023/09/18 11:56:22;;;;;;;5.65;3.85;;;25.20;99.90;;;;;;5085131;28;20646;-66
2023/09/18 11:58:50;;;;;;;3.60;3.30;;;25.20;99.90;;;;;;5085327;28;20325;-66
2023/09/18 12:01:18;;;;;;;3.95;3.65;;;25.20;99.90;;;;;;5085294;28;20266;-66
2023/09/18 12:03:45;;;;;;;3.47;3.28;;;25.30;99.90;;;;;;5085281;28;20264;-66
2023/09/18 12:06:13;;;;;;;3.55;3.35;;;25.40;99.90;;;;;;5081068;28;20321;-66
2023/09/18 12:08:42;;;;;;;4.43;3.40;;;25.40;99.90;;;;;;5064851;28;20208;-66
2023/09/18 12:11:09;;;;;;;3.63;3.33;;;25.50;99.90;;;;;;5078457;28;20251;-66
2023/09/18 12:13:36;;;;;;;4.55;3.60;;;25.60;99.90;;;;;;5084852;28;20298;-66
2023/09/18 12:16:05;;;;;;;3.90;3.47;;;25.60;99.90;;;;;;5085319;28;20202;-66
2023/09/18 12:18:34;;;;;;;4.50;3.50;;;25.60;99.90;;;;;;5085065;28;20202;-66
2023/09/18 12:21:04;;;;;;;3.85;3.42;;;25.70;99.90;;;;;;5084995;28;21028;-66
2023/09/18 12:23:38;;;;;;;5.20;3.40;;;25.70;99.90;;;;;;5085293;28;20191;-67
2023/09/18 12:26:08;;;;;;;4.38;3.92;;;25.80;99.90;;;;;;5085244;28;20280;-66
2023/09/18 12:28:36;;;;;;;5.93;5.47;;;25.80;99.90;;;;;;5084955;28;20424;-66
2023/09/18 12:31:06;;;;;;;7.15;3.70;;;25.80;99.90;;;;;;5084877;28;20297;-66
2023/09/18 12:33:36;;;;;;;4.07;3.67;;;25.80;99.90;;;;;;5084871;28;20281;-66
2023/09/18 12:36:04;;;;;;;3.80;3.30;;;25.80;99.90;;;;;;5085030;28;20199;-66
2023/09/18 12:38:32;;;;;;;4.10;3.80;;;25.70;99.90;;;;;;5085092;28;20207;-66
2023/09/18 12:41:05;;;;;;;3.75;3.45;;;25.60;99.90;;;;;;5084651;28;20329;-66
2023/09/18 12:43:37;;;;;;;3.95;3.65;;;25.60;99.90;;;;;;5084913;28;20241;-66
2023/09/18 12:46:05;;;;;;;4.82;3.47;;;25.60;99.90;;;;;;5085102;28;20507;-66
2023/09/18 12:48:32;;;;;;;4.22;3.60;;;25.50;99.90;;;;;;5084774;28;20267;-66
2023/09/18 12:51:06;;;;;;;5.50;4.07;;;25.50;99.90;;;;;;5084488;28;20752;-66
2023/09/18 12:53:34;;;;;;;7.65;3.88;;;25.40;99.90;;;;;;5084598;28;20272;-66